sensor_id;sensor_type;location;lat;lon;timestamp;P1;durP1;ratioP1;P2;durP2;ratioP2
58446;SDS011;44240;51.840;7.258;2022-08-21T00:02:00;10.32;;;4.63;;
58446;SDS011;44240;51.840;7.258;2022-08-21T00:04:26;10.90;;;4.13;;
58446;SDS011;44240;51.840;7.258;2022-08-21T00:06:52;7.85;;;4.97;;
58446;SDS011;44240;51.840;7.258;2022-08-21T00:09:18;6.97;;;4.25;;
58446;SDS011;44240;51.840;7.258;2022-08-21T00:11:44;8.75;;;4.50;;
58446;SDS011;44240;51.840;7.258;2022-08-21T00:14:10;7.15;;;4.60;;
58446;SDS011;44240;51.840;7.258;2022-08-21T00:16:39;7.85;;;4.18;;
58446;SDS011;44240;51.840;7.258;2022-08-21T00:19:05;7.68;;;5.13;;
58446;SDS011;44240;51.840;7.258;2022-08-21T00:21:32;6.82;;;4.45;;
58446;SDS011;44240;51.840;7.258;2022-08-21T00:23:59;8.63;;;4.05;;
58446;SDS011;44240;51.840;7.258;2022-08-21T00:26:25;12.30;;;4.93;;
58446;SDS011;44240;51.840;7.258;2022-08-21T00:28:51;7.45;;;4.00;;
58446;SDS011;44240;51.840;7.258;2022-08-21T00:31:17;7.53;;;4.72;;
58446;SDS011;44240;51.840;7.258;2022-08-21T00:33:44;9.40;;;4.65;;
58446;SDS011;44240;51.840;7.258;2022-08-21T00:36:10;8.07;;;4.88;;
58446;SDS011;44240;51.840;7.258;2022-08-21T00:38:36;7.25;;;4.93;;
58446;SDS011;44240;51.840;7.258;2022-08-21T00:41:02;10.57;;;5.55;;
58446;SDS011;44240;51.840;7.258;2022-08-21T00:43:31;12.57;;;5.63;;
58446;SDS011;44240;51.840;7.258;2022-08-21T00:45:59;11.50;;;5.70;;
58446;SDS011;44240;51.840;7.258;2022-08-21T00:48:25;8.95;;;5.00;;
58446;SDS011;44240;51.840;7.258;2022-08-21T00:55:53;9.65;;;5.90;;
58446;SDS011;44240;51.840;7.258;2022-08-21T00:58:20;12.13;;;6.82;;
58446;SDS011;44240;51.840;7.258;2022-08-21T01:00:47;10.48;;;6.18;;
58446;SDS011;44240;51.840;7.258;2022-08-21T01:03:16;10.85;;;5.70;;
58446;SDS011;44240;51.840;7.258;2022-08-21T01:05:45;11.10;;;6.25;;
58446;SDS011;44240;51.840;7.258;2022-08-21T01:08:12;7.43;;;5.30;;
58446;SDS011;44240;51.840;7.258;2022-08-21T01:10:40;8.60;;;6.85;;
58446;SDS011;44240;51.840;7.258;2022-08-21T01:13:07;11.02;;;5.45;;
58446;SDS011;44240;51.840;7.258;2022-08-21T01:15:37;7.95;;;6.35;;
58446;SDS011;44240;51.840;7.258;2022-08-21T01:18:05;9.23;;;5.80;;
58446;SDS011;44240;51.840;7.258;2022-08-21T01:20:34;11.57;;;6.85;;
58446;SDS011;44240;51.840;7.258;2022-08-21T01:23:01;9.73;;;5.60;;
58446;SDS011;44240;51.840;7.258;2022-08-21T01:25:28;8.38;;;5.85;;
58446;SDS011;44240;51.840;7.258;2022-08-21T01:27:53;8.85;;;6.28;;
58446;SDS011;44240;51.840;7.258;2022-08-21T01:30:21;9.73;;;6.40;;
58446;SDS011;44240;51.840;7.258;2022-08-21T01:32:49;6.80;;;5.32;;
58446;SDS011;44240;51.840;7.258;2022-08-21T01:35:16;10.43;;;5.80;;
58446;SDS011;44240;51.840;7.258;2022-08-21T01:37:43;10.30;;;5.63;;
58446;SDS011;44240;51.840;7.258;2022-08-21T01:40:09;7.68;;;5.47;;
58446;SDS011;44240;51.840;7.258;2022-08-21T01:42:37;9.68;;;5.68;;
58446;SDS011;44240;51.840;7.258;2022-08-21T01:45:03;9.00;;;5.68;;
58446;SDS011;44240;51.840;7.258;2022-08-21T01:47:30;9.65;;;5.60;;
58446;SDS011;44240;51.840;7.258;2022-08-21T01:49:56;10.85;;;5.88;;
58446;SDS011;44240;51.840;7.258;2022-08-21T01:52:22;10.20;;;5.72;;
58446;SDS011;44240;51.840;7.258;2022-08-21T01:54:47;8.98;;;5.80;;
58446;SDS011;44240;51.840;7.258;2022-08-21T01:57:13;9.93;;;5.93;;
58446;SDS011;44240;51.840;7.258;2022-08-21T01:59:39;9.25;;;6.35;;
58446;SDS011;44240;51.840;7.258;2022-08-21T02:02:05;11.55;;;6.25;;
58446;SDS011;44240;51.840;7.258;2022-08-21T02:04:31;7.82;;;5.75;;
58446;SDS011;44240;51.840;7.258;2022-08-21T02:06:57;9.45;;;5.70;;
58446;SDS011;44240;51.840;7.258;2022-08-21T02:09:24;8.10;;;5.43;;
58446;SDS011;44240;51.840;7.258;2022-08-21T02:11:50;9.20;;;5.00;;
58446;SDS011;44240;51.840;7.258;2022-08-21T02:14:16;10.82;;;5.60;;
58446;SDS011;44240;51.840;7.258;2022-08-21T02:16:43;10.98;;;6.45;;
58446;SDS011;44240;51.840;7.258;2022-08-21T02:19:10;8.63;;;5.20;;
58446;SDS011;44240;51.840;7.258;2022-08-21T02:21:37;6.65;;;5.25;;
58446;SDS011;44240;51.840;7.258;2022-08-21T02:24:03;10.63;;;5.80;;
58446;SDS011;44240;51.840;7.258;2022-08-21T02:26:28;8.38;;;5.60;;
58446;SDS011;44240;51.840;7.258;2022-08-21T02:28:54;13.77;;;7.25;;
58446;SDS011;44240;51.840;7.258;2022-08-21T02:31:20;9.88;;;5.78;;
58446;SDS011;44240;51.840;7.258;2022-08-21T02:33:45;6.75;;;5.45;;
58446;SDS011;44240;51.840;7.258;2022-08-21T02:36:11;9.70;;;5.70;;
58446;SDS011;44240;51.840;7.258;2022-08-21T02:38:39;7.82;;;6.32;;
58446;SDS011;44240;51.840;7.258;2022-08-21T02:41:06;8.77;;;6.30;;
58446;SDS011;44240;51.840;7.258;2022-08-21T02:43:34;9.73;;;5.80;;
58446;SDS011;44240;51.840;7.258;2022-08-21T02:46:00;9.40;;;6.30;;
58446;SDS011;44240;51.840;7.258;2022-08-21T02:48:29;6.30;;;5.68;;
58446;SDS011;44240;51.840;7.258;2022-08-21T02:51:00;14.70;;;6.35;;
58446;SDS011;44240;51.840;7.258;2022-08-21T02:53:45;8.43;;;6.55;;
58446;SDS011;44240;51.840;7.258;2022-08-21T02:56:12;9.55;;;6.30;;
58446;SDS011;44240;51.840;7.258;2022-08-21T02:58:42;12.52;;;7.05;;
58446;SDS011;44240;51.840;7.258;2022-08-21T03:01:13;15.32;;;6.63;;
58446;SDS011;44240;51.840;7.258;2022-08-21T03:03:41;10.88;;;6.60;;
58446;SDS011;44240;51.840;7.258;2022-08-21T03:06:08;8.55;;;6.45;;
58446;SDS011;44240;51.840;7.258;2022-08-21T03:08:35;9.75;;;6.60;;
58446;SDS011;44240;51.840;7.258;2022-08-21T03:11:03;9.07;;;6.45;;
58446;SDS011;44240;51.840;7.258;2022-08-21T03:13:29;10.57;;;6.35;;
58446;SDS011;44240;51.840;7.258;2022-08-21T03:15:54;7.15;;;6.13;;
58446;SDS011;44240;51.840;7.258;2022-08-21T03:18:20;12.73;;;5.50;;
58446;SDS011;44240;51.840;7.258;2022-08-21T03:20:47;8.23;;;6.25;;
58446;SDS011;44240;51.840;7.258;2022-08-21T03:23:13;10.15;;;6.03;;
58446;SDS011;44240;51.840;7.258;2022-08-21T03:25:40;11.38;;;6.25;;
58446;SDS011;44240;51.840;7.258;2022-08-21T03:28:08;9.27;;;6.80;;
58446;SDS011;44240;51.840;7.258;2022-08-21T03:30:35;10.30;;;6.20;;
58446;SDS011;44240;51.840;7.258;2022-08-21T03:33:01;11.82;;;6.32;;
58446;SDS011;44240;51.840;7.258;2022-08-21T03:35:27;8.57;;;6.45;;
58446;SDS011;44240;51.840;7.258;2022-08-21T03:37:53;11.32;;;6.57;;
58446;SDS011;44240;51.840;7.258;2022-08-21T03:40:20;9.70;;;6.50;;
58446;SDS011;44240;51.840;7.258;2022-08-21T03:42:46;11.70;;;6.78;;
58446;SDS011;44240;51.840;7.258;2022-08-21T03:45:13;6.90;;;6.20;;
58446;SDS011;44240;51.840;7.258;2022-08-21T03:47:49;16.33;;;6.90;;
58446;SDS011;44240;51.840;7.258;2022-08-21T03:50:20;8.93;;;6.57;;
58446;SDS011;44240;51.840;7.258;2022-08-21T03:52:47;9.18;;;7.25;;
58446;SDS011;44240;51.840;7.258;2022-08-21T03:55:13;11.77;;;6.85;;
58446;SDS011;44240;51.840;7.258;2022-08-21T03:57:38;10.75;;;7.15;;
58446;SDS011;44240;51.840;7.258;2022-08-21T04:00:04;8.57;;;7.05;;
58446;SDS011;44240;51.840;7.258;2022-08-21T04:02:33;8.93;;;6.40;;
58446;SDS011;44240;51.840;7.258;2022-08-21T04:04:59;14.07;;;7.15;;
58446;SDS011;44240;51.840;7.258;2022-08-21T04:07:24;12.50;;;7.88;;
58446;SDS011;44240;51.840;7.258;2022-08-21T04:09:50;11.15;;;9.13;;
58446;SDS011;44240;51.840;7.258;2022-08-21T04:12:15;13.55;;;8.57;;
58446;SDS011;44240;51.840;7.258;2022-08-21T04:14:41;14.75;;;8.00;;
58446;SDS011;44240;51.840;7.258;2022-08-21T04:17:06;12.85;;;9.23;;
58446;SDS011;44240;51.840;7.258;2022-08-21T04:19:32;9.45;;;7.50;;
58446;SDS011;44240;51.840;7.258;2022-08-21T04:21:57;15.13;;;8.68;;
58446;SDS011;44240;51.840;7.258;2022-08-21T04:24:23;11.30;;;7.50;;
58446;SDS011;44240;51.840;7.258;2022-08-21T04:26:48;12.10;;;8.50;;
58446;SDS011;44240;51.840;7.258;2022-08-21T04:29:15;11.00;;;8.73;;
58446;SDS011;44240;51.840;7.258;2022-08-21T04:31:40;10.50;;;8.25;;
58446;SDS011;44240;51.840;7.258;2022-08-21T04:34:08;8.63;;;7.15;;
58446;SDS011;44240;51.840;7.258;2022-08-21T04:36:34;11.88;;;8.05;;
58446;SDS011;44240;51.840;7.258;2022-08-21T04:38:59;9.63;;;7.32;;
58446;SDS011;44240;51.840;7.258;2022-08-21T04:41:25;10.23;;;7.85;;
58446;SDS011;44240;51.840;7.258;2022-08-21T04:43:51;11.48;;;7.75;;
58446;SDS011;44240;51.840;7.258;2022-08-21T04:46:16;11.70;;;7.45;;
58446;SDS011;44240;51.840;7.258;2022-08-21T04:48:43;12.77;;;7.25;;
58446;SDS011;44240;51.840;7.258;2022-08-21T04:51:13;11.07;;;6.68;;
58446;SDS011;44240;51.840;7.258;2022-08-21T04:53:50;10.95;;;8.30;;
58446;SDS011;44240;51.840;7.258;2022-08-21T04:56:21;9.40;;;7.70;;
58446;SDS011;44240;51.840;7.258;2022-08-21T04:58:50;10.80;;;8.07;;
58446;SDS011;44240;51.840;7.258;2022-08-21T05:01:21;12.02;;;8.90;;
58446;SDS011;44240;51.840;7.258;2022-08-21T05:03:49;13.45;;;8.05;;
58446;SDS011;44240;51.840;7.258;2022-08-21T05:06:18;12.82;;;9.65;;
58446;SDS011;44240;51.840;7.258;2022-08-21T05:08:45;14.25;;;8.93;;
58446;SDS011;44240;51.840;7.258;2022-08-21T05:11:13;14.70;;;8.90;;
58446;SDS011;44240;51.840;7.258;2022-08-21T05:13:39;18.83;;;8.50;;
58446;SDS011;44240;51.840;7.258;2022-08-21T05:16:06;12.00;;;8.05;;
58446;SDS011;44240;51.840;7.258;2022-08-21T05:18:32;13.27;;;8.63;;
58446;SDS011;44240;51.840;7.258;2022-08-21T05:20:57;14.88;;;8.60;;
58446;SDS011;44240;51.840;7.258;2022-08-21T05:23:23;11.57;;;7.78;;
58446;SDS011;44240;51.840;7.258;2022-08-21T05:25:49;9.82;;;8.20;;
58446;SDS011;44240;51.840;7.258;2022-08-21T05:28:16;15.63;;;8.73;;
58446;SDS011;44240;51.840;7.258;2022-08-21T05:30:42;14.07;;;8.38;;
58446;SDS011;44240;51.840;7.258;2022-08-21T05:33:09;9.60;;;7.85;;
58446;SDS011;44240;51.840;7.258;2022-08-21T05:35:35;12.50;;;8.18;;
58446;SDS011;44240;51.840;7.258;2022-08-21T05:38:01;10.80;;;7.60;;
58446;SDS011;44240;51.840;7.258;2022-08-21T05:40:28;13.23;;;7.57;;
58446;SDS011;44240;51.840;7.258;2022-08-21T05:42:53;13.27;;;7.90;;
58446;SDS011;44240;51.840;7.258;2022-08-21T05:45:20;12.48;;;9.57;;
58446;SDS011;44240;51.840;7.258;2022-08-21T05:47:47;11.65;;;7.95;;
58446;SDS011;44240;51.840;7.258;2022-08-21T05:50:12;10.25;;;7.53;;
58446;SDS011;44240;51.840;7.258;2022-08-21T05:52:38;13.68;;;7.82;;
58446;SDS011;44240;51.840;7.258;2022-08-21T05:55:04;13.02;;;8.65;;
58446;SDS011;44240;51.840;7.258;2022-08-21T05:57:30;9.40;;;8.38;;
58446;SDS011;44240;51.840;7.258;2022-08-21T05:59:55;14.55;;;10.05;;
58446;SDS011;44240;51.840;7.258;2022-08-21T06:02:21;11.57;;;8.02;;
58446;SDS011;44240;51.840;7.258;2022-08-21T06:04:52;13.05;;;8.20;;
58446;SDS011;44240;51.840;7.258;2022-08-21T06:07:21;13.20;;;8.30;;
58446;SDS011;44240;51.840;7.258;2022-08-21T06:09:46;14.88;;;8.18;;
58446;SDS011;44240;51.840;7.258;2022-08-21T06:12:12;13.57;;;8.57;;
58446;SDS011;44240;51.840;7.258;2022-08-21T06:14:38;19.42;;;9.40;;
58446;SDS011;44240;51.840;7.258;2022-08-21T06:17:06;10.23;;;8.27;;
58446;SDS011;44240;51.840;7.258;2022-08-21T06:19:33;13.70;;;8.90;;
58446;SDS011;44240;51.840;7.258;2022-08-21T06:21:59;13.00;;;9.65;;
58446;SDS011;44240;51.840;7.258;2022-08-21T06:24:25;12.30;;;8.73;;
58446;SDS011;44240;51.840;7.258;2022-08-21T06:26:51;11.07;;;8.52;;
58446;SDS011;44240;51.840;7.258;2022-08-21T06:29:17;14.60;;;9.10;;
58446;SDS011;44240;51.840;7.258;2022-08-21T06:31:44;15.93;;;9.57;;
58446;SDS011;44240;51.840;7.258;2022-08-21T06:34:11;20.42;;;9.45;;
58446;SDS011;44240;51.840;7.258;2022-08-21T06:36:36;16.27;;;10.68;;
58446;SDS011;44240;51.840;7.258;2022-08-21T06:39:02;14.23;;;9.40;;
58446;SDS011;44240;51.840;7.258;2022-08-21T06:41:28;15.70;;;10.43;;
58446;SDS011;44240;51.840;7.258;2022-08-21T06:43:54;15.07;;;9.57;;
58446;SDS011;44240;51.840;7.258;2022-08-21T06:46:20;11.52;;;9.48;;
58446;SDS011;44240;51.840;7.258;2022-08-21T06:48:46;12.55;;;7.78;;
58446;SDS011;44240;51.840;7.258;2022-08-21T06:51:12;19.33;;;11.13;;
58446;SDS011;44240;51.840;7.258;2022-08-21T06:53:37;16.75;;;10.50;;
58446;SDS011;44240;51.840;7.258;2022-08-21T06:56:03;17.27;;;10.75;;
58446;SDS011;44240;51.840;7.258;2022-08-21T06:58:29;19.15;;;10.75;;
58446;SDS011;44240;51.840;7.258;2022-08-21T07:00:55;19.27;;;10.20;;
58446;SDS011;44240;51.840;7.258;2022-08-21T07:03:23;18.23;;;11.02;;
58446;SDS011;44240;51.840;7.258;2022-08-21T07:05:50;19.20;;;11.32;;
58446;SDS011;44240;51.840;7.258;2022-08-21T07:08:16;17.33;;;10.75;;
58446;SDS011;44240;51.840;7.258;2022-08-21T07:10:42;19.35;;;11.10;;
58446;SDS011;44240;51.840;7.258;2022-08-21T07:13:08;29.88;;;10.73;;
58446;SDS011;44240;51.840;7.258;2022-08-21T07:15:34;21.50;;;10.73;;
58446;SDS011;44240;51.840;7.258;2022-08-21T07:17:59;17.75;;;10.05;;
58446;SDS011;44240;51.840;7.258;2022-08-21T07:20:26;12.65;;;9.55;;
58446;SDS011;44240;51.840;7.258;2022-08-21T07:22:52;14.50;;;10.18;;
58446;SDS011;44240;51.840;7.258;2022-08-21T07:25:18;13.95;;;9.75;;
58446;SDS011;44240;51.840;7.258;2022-08-21T07:27:44;15.82;;;9.18;;
58446;SDS011;44240;51.840;7.258;2022-08-21T07:30:10;16.98;;;10.73;;
58446;SDS011;44240;51.840;7.258;2022-08-21T07:32:35;17.38;;;10.05;;
58446;SDS011;44240;51.840;7.258;2022-08-21T07:35:01;18.67;;;11.02;;
58446;SDS011;44240;51.840;7.258;2022-08-21T07:37:27;19.25;;;10.43;;
58446;SDS011;44240;51.840;7.258;2022-08-21T07:39:52;16.85;;;10.27;;
58446;SDS011;44240;51.840;7.258;2022-08-21T07:42:18;16.70;;;9.82;;
58446;SDS011;44240;51.840;7.258;2022-08-21T07:44:44;12.57;;;8.30;;
58446;SDS011;44240;51.840;7.258;2022-08-21T07:47:09;20.40;;;10.52;;
58446;SDS011;44240;51.840;7.258;2022-08-21T07:49:35;12.02;;;8.70;;
58446;SDS011;44240;51.840;7.258;2022-08-21T07:52:00;14.35;;;7.97;;
58446;SDS011;44240;51.840;7.258;2022-08-21T07:54:26;12.85;;;7.47;;
58446;SDS011;44240;51.840;7.258;2022-08-21T07:56:52;13.70;;;6.55;;
58446;SDS011;44240;51.840;7.258;2022-08-21T07:59:17;10.57;;;6.40;;
58446;SDS011;44240;51.840;7.258;2022-08-21T08:01:43;12.38;;;6.00;;
58446;SDS011;44240;51.840;7.258;2022-08-21T08:04:08;11.18;;;5.45;;
58446;SDS011;44240;51.840;7.258;2022-08-21T08:06:34;10.45;;;4.28;;
58446;SDS011;44240;51.840;7.258;2022-08-21T08:08:59;6.38;;;4.43;;
58446;SDS011;44240;51.840;7.258;2022-08-21T08:11:27;8.73;;;3.88;;
58446;SDS011;44240;51.840;7.258;2022-08-21T08:13:53;6.93;;;3.95;;
58446;SDS011;44240;51.840;7.258;2022-08-21T08:16:18;6.55;;;3.92;;
58446;SDS011;44240;51.840;7.258;2022-08-21T08:18:44;6.70;;;3.38;;
58446;SDS011;44240;51.840;7.258;2022-08-21T08:21:10;8.75;;;3.60;;
58446;SDS011;44240;51.840;7.258;2022-08-21T08:23:37;8.98;;;2.97;;
58446;SDS011;44240;51.840;7.258;2022-08-21T08:26:04;6.78;;;3.72;;
58446;SDS011;44240;51.840;7.258;2022-08-21T08:28:30;7.90;;;2.83;;
58446;SDS011;44240;51.840;7.258;2022-08-21T08:30:57;10.38;;;4.43;;
58446;SDS011;44240;51.840;7.258;2022-08-21T08:33:24;10.63;;;3.30;;
58446;SDS011;44240;51.840;7.258;2022-08-21T08:35:50;9.65;;;4.38;;
58446;SDS011;44240;51.840;7.258;2022-08-21T08:38:17;8.35;;;3.53;;
58446;SDS011;44240;51.840;7.258;2022-08-21T08:43:29;6.43;;;3.83;;
58446;SDS011;44240;51.840;7.258;2022-08-21T08:45:57;10.98;;;3.45;;
58446;SDS011;44240;51.840;7.258;2022-08-21T08:48:39;13.65;;;4.28;;
58446;SDS011;44240;51.840;7.258;2022-08-21T08:51:21;7.60;;;3.95;;
58446;SDS011;44240;51.840;7.258;2022-08-21T08:54:08;6.07;;;3.28;;
58446;SDS011;44240;51.840;7.258;2022-08-21T08:56:37;11.40;;;2.95;;
58446;SDS011;44240;51.840;7.258;2022-08-21T08:59:08;8.65;;;3.40;;
58446;SDS011;44240;51.840;7.258;2022-08-21T09:01:40;7.78;;;2.97;;
58446;SDS011;44240;51.840;7.258;2022-08-21T09:04:06;6.95;;;3.25;;
58446;SDS011;44240;51.840;7.258;2022-08-21T09:06:43;7.15;;;2.90;;
58446;SDS011;44240;51.840;7.258;2022-08-21T09:12:02;10.15;;;3.05;;
58446;SDS011;44240;51.840;7.258;2022-08-21T09:22:15;6.65;;;2.53;;
58446;SDS011;44240;51.840;7.258;2022-08-21T09:25:50;6.13;;;2.63;;
58446;SDS011;44240;51.840;7.258;2022-08-21T09:27:57;6.63;;;2.42;;
58446;SDS011;44240;51.840;7.258;2022-08-21T09:30:24;5.63;;;2.40;;
58446;SDS011;44240;51.840;7.258;2022-08-21T09:32:53;4.25;;;2.00;;
58446;SDS011;44240;51.840;7.258;2022-08-21T09:35:20;7.47;;;2.38;;
58446;SDS011;44240;51.840;7.258;2022-08-21T09:43:22;5.75;;;2.15;;
58446;SDS011;44240;51.840;7.258;2022-08-21T09:45:49;3.17;;;1.60;;
58446;SDS011;44240;51.840;7.258;2022-08-21T09:48:26;8.32;;;2.83;;
58446;SDS011;44240;51.840;7.258;2022-08-21T09:50:51;2.97;;;1.75;;
58446;SDS011;44240;51.840;7.258;2022-08-21T09:58:38;6.05;;;2.38;;
58446;SDS011;44240;51.840;7.258;2022-08-21T10:01:06;3.35;;;1.63;;
58446;SDS011;44240;51.840;7.258;2022-08-21T10:03:41;5.10;;;1.88;;
58446;SDS011;44240;51.840;7.258;2022-08-21T10:06:07;4.60;;;1.90;;
58446;SDS011;44240;51.840;7.258;2022-08-21T10:08:36;4.00;;;1.67;;
58446;SDS011;44240;51.840;7.258;2022-08-21T10:11:07;4.40;;;1.98;;
58446;SDS011;44240;51.840;7.258;2022-08-21T10:13:56;5.43;;;1.70;;
58446;SDS011;44240;51.840;7.258;2022-08-21T10:24:32;2.85;;;1.58;;
58446;SDS011;44240;51.840;7.258;2022-08-21T10:29:58;4.03;;;1.50;;
58446;SDS011;44240;51.840;7.258;2022-08-21T10:32:50;3.35;;;1.27;;
58446;SDS011;44240;51.840;7.258;2022-08-21T10:35:31;5.28;;;1.60;;
58446;SDS011;44240;51.840;7.258;2022-08-21T10:40:52;2.20;;;1.35;;
58446;SDS011;44240;51.840;7.258;2022-08-21T10:46:50;5.25;;;1.50;;
58446;SDS011;44240;51.840;7.258;2022-08-21T10:49:40;6.40;;;1.77;;
58446;SDS011;44240;51.840;7.258;2022-08-21T10:52:22;3.40;;;1.50;;
58446;SDS011;44240;51.840;7.258;2022-08-21T10:55:07;3.78;;;1.60;;
58446;SDS011;44240;51.840;7.258;2022-08-21T11:03:16;3.72;;;1.60;;
58446;SDS011;44240;51.840;7.258;2022-08-21T11:05:53;4.63;;;1.20;;
58446;SDS011;44240;51.840;7.258;2022-08-21T11:08:24;5.63;;;1.65;;
58446;SDS011;44240;51.840;7.258;2022-08-21T11:10:57;4.93;;;1.50;;
58446;SDS011;44240;51.840;7.258;2022-08-21T11:13:33;5.15;;;1.45;;
58446;SDS011;44240;51.840;7.258;2022-08-21T11:16:07;4.40;;;1.52;;
58446;SDS011;44240;51.840;7.258;2022-08-21T11:21:41;2.10;;;1.10;;
58446;SDS011;44240;51.840;7.258;2022-08-21T11:27:12;5.03;;;1.45;;
58446;SDS011;44240;51.840;7.258;2022-08-21T11:30:02;3.58;;;1.65;;
58446;SDS011;44240;51.840;7.258;2022-08-21T11:35:46;8.52;;;1.85;;
58446;SDS011;44240;51.840;7.258;2022-08-21T11:38:26;5.93;;;1.60;;
58446;SDS011;44240;51.840;7.258;2022-08-21T11:52:07;2.83;;;1.70;;
58446;SDS011;44240;51.840;7.258;2022-08-21T11:54:51;4.53;;;1.50;;
58446;SDS011;44240;51.840;7.258;2022-08-21T11:57:46;2.05;;;1.40;;
58446;SDS011;44240;51.840;7.258;2022-08-21T12:00:19;2.70;;;1.20;;
58446;SDS011;44240;51.840;7.258;2022-08-21T12:02:52;5.13;;;1.98;;
58446;SDS011;44240;51.840;7.258;2022-08-21T12:05:26;2.25;;;1.25;;
58446;SDS011;44240;51.840;7.258;2022-08-21T12:08:05;6.55;;;1.50;;
58446;SDS011;44240;51.840;7.258;2022-08-21T12:10:38;3.30;;;1.33;;
58446;SDS011;44240;51.840;7.258;2022-08-21T12:13:11;1.85;;;1.27;;
58446;SDS011;44240;51.840;7.258;2022-08-21T12:15:50;5.25;;;1.33;;
58446;SDS011;44240;51.840;7.258;2022-08-21T12:18:21;1.98;;;1.30;;
58446;SDS011;44240;51.840;7.258;2022-08-21T12:21:00;2.47;;;0.70;;
58446;SDS011;44240;51.840;7.258;2022-08-21T12:26:35;3.40;;;1.10;;
58446;SDS011;44240;51.840;7.258;2022-08-21T12:29:14;4.15;;;1.23;;
58446;SDS011;44240;51.840;7.258;2022-08-21T12:31:49;8.77;;;1.50;;
58446;SDS011;44240;51.840;7.258;2022-08-21T12:34:15;3.85;;;1.75;;
58446;SDS011;44240;51.840;7.258;2022-08-21T12:36:46;3.65;;;1.75;;
58446;SDS011;44240;51.840;7.258;2022-08-21T12:39:20;3.50;;;1.55;;
58446;SDS011;44240;51.840;7.258;2022-08-21T12:41:51;5.30;;;1.27;;
58446;SDS011;44240;51.840;7.258;2022-08-21T12:44:22;4.15;;;1.38;;
58446;SDS011;44240;51.840;7.258;2022-08-21T12:46:57;7.32;;;2.30;;
58446;SDS011;44240;51.840;7.258;2022-08-21T12:52:32;4.13;;;1.40;;
58446;SDS011;44240;51.840;7.258;2022-08-21T12:55:02;3.67;;;1.55;;
58446;SDS011;44240;51.840;7.258;2022-08-21T12:57:29;5.65;;;1.70;;
58446;SDS011;44240;51.840;7.258;2022-08-21T12:59:56;8.95;;;1.83;;
58446;SDS011;44240;51.840;7.258;2022-08-21T13:02:25;5.03;;;1.63;;
58446;SDS011;44240;51.840;7.258;2022-08-21T13:04:54;4.85;;;1.50;;
58446;SDS011;44240;51.840;7.258;2022-08-21T13:07:24;2.38;;;1.20;;
58446;SDS011;44240;51.840;7.258;2022-08-21T13:09:53;3.92;;;1.27;;
58446;SDS011;44240;51.840;7.258;2022-08-21T13:12:31;6.15;;;1.50;;
58446;SDS011;44240;51.840;7.258;2022-08-21T13:15:00;3.42;;;1.27;;
58446;SDS011;44240;51.840;7.258;2022-08-21T13:17:30;5.00;;;1.58;;
58446;SDS011;44240;51.840;7.258;2022-08-21T13:20:00;2.80;;;1.10;;
58446;SDS011;44240;51.840;7.258;2022-08-21T13:22:28;4.22;;;1.48;;
58446;SDS011;44240;51.840;7.258;2022-08-21T13:24:54;3.97;;;1.42;;
58446;SDS011;44240;51.840;7.258;2022-08-21T13:30:05;4.03;;;1.38;;
58446;SDS011;44240;51.840;7.258;2022-08-21T13:32:34;4.55;;;1.30;;
58446;SDS011;44240;51.840;7.258;2022-08-21T13:35:08;4.47;;;1.17;;
58446;SDS011;44240;51.840;7.258;2022-08-21T13:37:49;4.13;;;1.30;;
58446;SDS011;44240;51.840;7.258;2022-08-21T13:40:19;1.95;;;1.35;;
58446;SDS011;44240;51.840;7.258;2022-08-21T13:42:48;3.88;;;0.90;;
58446;SDS011;44240;51.840;7.258;2022-08-21T13:45:16;5.38;;;1.65;;
58446;SDS011;44240;51.840;7.258;2022-08-21T13:47:52;2.67;;;1.27;;
58446;SDS011;44240;51.840;7.258;2022-08-21T13:50:19;5.95;;;1.40;;
58446;SDS011;44240;51.840;7.258;2022-08-21T13:52:59;3.92;;;1.60;;
58446;SDS011;44240;51.840;7.258;2022-08-21T13:55:34;4.07;;;1.50;;
58446;SDS011;44240;51.840;7.258;2022-08-21T13:58:05;3.25;;;1.02;;
58446;SDS011;44240;51.840;7.258;2022-08-21T14:00:32;3.63;;;1.10;;
58446;SDS011;44240;51.840;7.258;2022-08-21T14:03:08;4.88;;;1.25;;
58446;SDS011;44240;51.840;7.258;2022-08-21T14:05:37;6.43;;;1.27;;
58446;SDS011;44240;51.840;7.258;2022-08-21T14:08:10;5.22;;;1.40;;
58446;SDS011;44240;51.840;7.258;2022-08-21T14:10:44;2.67;;;1.33;;
58446;SDS011;44240;51.840;7.258;2022-08-21T14:16:18;4.78;;;1.40;;
58446;SDS011;44240;51.840;7.258;2022-08-21T14:21:28;6.82;;;1.50;;
58446;SDS011;44240;51.840;7.258;2022-08-21T14:24:02;3.67;;;1.52;;
58446;SDS011;44240;51.840;7.258;2022-08-21T14:26:30;3.50;;;1.13;;
58446;SDS011;44240;51.840;7.258;2022-08-21T14:28:58;2.53;;;1.10;;
58446;SDS011;44240;51.840;7.258;2022-08-21T14:31:28;3.83;;;1.17;;
58446;SDS011;44240;51.840;7.258;2022-08-21T14:33:55;4.45;;;1.77;;
58446;SDS011;44240;51.840;7.258;2022-08-21T14:36:21;2.47;;;0.85;;
58446;SDS011;44240;51.840;7.258;2022-08-21T14:38:46;3.65;;;1.00;;
58446;SDS011;44240;51.840;7.258;2022-08-21T14:41:20;1.95;;;1.23;;
58446;SDS011;44240;51.840;7.258;2022-08-21T14:43:49;2.78;;;1.15;;
58446;SDS011;44240;51.840;7.258;2022-08-21T14:46:25;3.90;;;1.10;;
58446;SDS011;44240;51.840;7.258;2022-08-21T14:48:53;1.70;;;1.13;;
58446;SDS011;44240;51.840;7.258;2022-08-21T14:51:18;3.70;;;0.75;;
58446;SDS011;44240;51.840;7.258;2022-08-21T14:53:45;4.57;;;1.05;;
58446;SDS011;44240;51.840;7.258;2022-08-21T14:56:11;2.20;;;1.30;;
58446;SDS011;44240;51.840;7.258;2022-08-21T14:58:39;4.13;;;1.38;;
58446;SDS011;44240;51.840;7.258;2022-08-21T15:01:06;3.17;;;0.93;;
58446;SDS011;44240;51.840;7.258;2022-08-21T15:03:34;4.03;;;1.02;;
58446;SDS011;44240;51.840;7.258;2022-08-21T15:06:00;2.28;;;1.30;;
58446;SDS011;44240;51.840;7.258;2022-08-21T15:08:26;2.92;;;1.15;;
58446;SDS011;44240;51.840;7.258;2022-08-21T15:10:52;3.45;;;0.80;;
58446;SDS011;44240;51.840;7.258;2022-08-21T15:13:18;3.20;;;1.10;;
58446;SDS011;44240;51.840;7.258;2022-08-21T15:15:45;3.03;;;1.13;;
58446;SDS011;44240;51.840;7.258;2022-08-21T15:18:12;2.83;;;1.10;;
58446;SDS011;44240;51.840;7.258;2022-08-21T15:20:38;2.40;;;1.15;;
58446;SDS011;44240;51.840;7.258;2022-08-21T15:23:04;3.97;;;1.35;;
58446;SDS011;44240;51.840;7.258;2022-08-21T15:25:31;3.20;;;0.93;;
58446;SDS011;44240;51.840;7.258;2022-08-21T15:27:58;2.03;;;0.98;;
58446;SDS011;44240;51.840;7.258;2022-08-21T15:30:24;2.35;;;0.95;;
58446;SDS011;44240;51.840;7.258;2022-08-21T15:32:50;2.10;;;0.90;;
58446;SDS011;44240;51.840;7.258;2022-08-21T15:35:16;2.83;;;0.98;;
58446;SDS011;44240;51.840;7.258;2022-08-21T15:37:41;3.28;;;1.05;;
58446;SDS011;44240;51.840;7.258;2022-08-21T15:40:07;2.45;;;1.00;;
58446;SDS011;44240;51.840;7.258;2022-08-21T15:42:33;5.10;;;1.20;;
58446;SDS011;44240;51.840;7.258;2022-08-21T15:44:59;1.30;;;0.80;;
58446;SDS011;44240;51.840;7.258;2022-08-21T15:47:28;4.63;;;1.60;;
58446;SDS011;44240;51.840;7.258;2022-08-21T15:49:56;1.92;;;1.00;;
58446;SDS011;44240;51.840;7.258;2022-08-21T15:52:22;3.92;;;1.00;;
58446;SDS011;44240;51.840;7.258;2022-08-21T15:54:48;3.13;;;1.20;;
58446;SDS011;44240;51.840;7.258;2022-08-21T15:57:15;1.25;;;0.88;;
58446;SDS011;44240;51.840;7.258;2022-08-21T15:59:43;2.55;;;1.00;;
58446;SDS011;44240;51.840;7.258;2022-08-21T16:02:15;5.70;;;0.95;;
58446;SDS011;44240;51.840;7.258;2022-08-21T16:04:44;2.65;;;0.90;;
58446;SDS011;44240;51.840;7.258;2022-08-21T16:07:09;2.65;;;1.10;;
58446;SDS011;44240;51.840;7.258;2022-08-21T16:09:35;2.20;;;1.00;;
58446;SDS011;44240;51.840;7.258;2022-08-21T16:12:01;2.90;;;1.00;;
58446;SDS011;44240;51.840;7.258;2022-08-21T16:14:28;4.47;;;1.35;;
58446;SDS011;44240;51.840;7.258;2022-08-21T16:16:55;4.68;;;1.42;;
58446;SDS011;44240;51.840;7.258;2022-08-21T16:19:21;2.13;;;0.90;;